Time;durP1;ratioP1;P1;durP2;ratioP2;P2;SDS_P1;SDS_P2;PMS_P1;PMS_P2;Temp;Humidity;BMP_temperature;BMP_pressure;BME280_temperature;BME280_humidity;BME280_pressure;Samples;Min_cycle;Max_cycle;Signal;HPM_P1;HPM_P2
2022/04/16 00:00:17;;;;;;;1.67;1.40;;;;;;;;;;4911747;28;20479;-64
2022/04/16 00:02:43;;;;;;;3.67;1.52;;;;;;;;;;4907982;29;20040;-64
2022/04/16 00:05:09;;;;;;;3.05;1.70;;;;;;;;;;4907584;29;20639;-64
2022/04/16 00:07:34;;;;;;;2.05;1.55;;;;;;;;;;4911620;29;20475;-63
2022/04/16 00:09:59;;;;;;;2.47;1.73;;;;;;;;;;4910098;29;20068;-63
2022/04/16 00:12:27;;;;;;;1.73;1.60;;;;;;;;;;4910707;29;20555;-63
2022/04/16 00:14:53;;;;;;;3.03;1.73;;;;;;;;;;4912933;29;20091;-64
2022/04/16 00:17:19;;;;;;;3.42;1.95;;;;;;;;;;4911239;29;20028;-63
2022/04/16 00:19:44;;;;;;;2.38;1.85;;;;;;;;;;4909237;29;20052;-64
2022/04/16 00:22:12;;;;;;;2.70;1.95;;;;;;;;;;4910785;29;20059;-63
2022/04/16 00:24:41;;;;;;;4.82;2.22;;;;;;;;;;4908869;29;20139;-65
2022/04/16 00:27:07;;;;;;;5.18;2.90;;;;;;;;;;4909792;29;20135;-63
2022/04/16 00:29:34;;;;;;;6.88;3.40;;;;;;;;;;4910162;29;20047;-64
2022/04/16 00:32:00;;;;;;;6.05;3.40;;;;;;;;;;4910410;29;20612;-63
2022/04/16 00:34:26;;;;;;;7.18;3.30;;;;;;;;;;4904955;29;20111;-62
2022/04/16 00:36:51;;;;;;;6.47;3.10;;;;;;;;;;4902933;29;20519;-63
2022/04/16 00:39:16;;;;;;;6.85;3.28;;;;;;;;;;4908583;29;20055;-61
2022/04/16 00:41:43;;;;;;;4.82;3.13;;;;;;;;;;4907428;29;20036;-63
2022/04/16 00:44:09;;;;;;;4.63;2.70;;;;;;;;;;4912793;29;20082;-61
2022/04/16 00:46:36;;;;;;;4.57;2.40;;;;;;;;;;4910017;29;20123;-62
2022/04/16 00:49:02;;;;;;;5.57;2.60;;;;;;;;;;4910632;29;20050;-63
2022/04/16 00:51:29;;;;;;;3.60;2.40;;;;;;;;;;4907712;29;20413;-62
2022/04/16 00:53:55;;;;;;;4.25;2.63;;;;;;;;;;4912453;29;20033;-62
2022/04/16 00:56:22;;;;;;;2.92;2.22;;;;;;;;;;4912681;29;20036;-64
2022/04/16 00:58:47;;;;;;;3.20;2.30;;;;;;;;;;4913568;29;20056;-62
2022/04/16 01:01:13;;;;;;;4.43;2.30;;;;;;;;;;4908308;29;20040;-61
2022/04/16 01:03:43;;;;;;;2.83;1.90;;;;;;;;;;4911226;29;20057;-61
2022/04/16 01:06:14;;;;;;;2.65;2.28;;;;;;;;;;4904726;29;20124;-63
2022/04/16 01:08:41;;;;;;;3.70;2.17;;;;;;;;;;4914648;29;20111;-60
2022/04/16 01:11:07;;;;;;;3.25;2.08;;;;;;;;;;4914786;29;20201;-62
2022/04/16 01:13:32;;;;;;;2.88;2.13;;;;;;;;;;4912948;29;20055;-62
2022/04/16 01:15:58;;;;;;;3.40;2.20;;;;;;;;;;4912525;29;20066;-63
2022/04/16 01:18:23;;;;;;;2.45;1.90;;;;;;;;;;4913719;29;20072;-63
2022/04/16 01:20:48;;;;;;;2.45;2.10;;;;;;;;;;4915797;29;20475;-62
2022/04/16 01:23:15;;;;;;;4.28;2.13;;;;;;;;;;4913885;29;20032;-61
2022/04/16 01:25:42;;;;;;;4.05;2.20;;;;;;;;;;4911631;29;20056;-62
2022/04/16 01:28:09;;;;;;;2.92;2.13;;;;;;;;;;4914882;29;20058;-60
2022/04/16 01:30:34;;;;;;;3.10;2.20;;;;;;;;;;4911450;29;20059;-62
2022/04/16 01:33:03;;;;;;;2.92;2.00;;;;;;;;;;4911043;29;20037;-64
2022/04/16 01:35:28;;;;;;;2.67;2.05;;;;;;;;;;4911904;29;20073;-62
2022/04/16 01:37:54;;;;;;;2.35;2.00;;;;;;;;;;4913838;29;20048;-62
2022/04/16 01:40:25;;;;;;;3.20;2.13;;;;;;;;;;4910566;29;20044;-61
2022/04/16 01:42:55;;;;;;;3.90;2.10;;;;;;;;;;4916745;29;20121;-63
2022/04/16 01:45:22;;;;;;;3.20;2.30;;;;;;;;;;4911087;29;20063;-61
2022/04/16 01:47:47;;;;;;;2.55;1.92;;;;;;;;;;4915049;28;20494;-62
2022/04/16 01:50:13;;;;;;;3.70;2.90;;;;;;;;;;4913768;29;20119;-62
2022/04/16 01:52:40;;;;;;;2.60;2.38;;;;;;;;;;4910690;29;20063;-64
2022/04/16 01:55:07;;;;;;;5.13;2.40;;;;;;;;;;4911922;29;20063;-61
2022/04/16 01:57:33;;;;;;;4.13;2.28;;;;;;;;;;4915121;29;20127;-62
2022/04/16 01:59:58;;;;;;;3.22;2.30;;;;;;;;;;4913064;29;20081;-63
2022/04/16 02:02:23;;;;;;;3.00;2.22;;;;;;;;;;4912380;29;20119;-63
2022/04/16 02:04:50;;;;;;;3.42;2.45;;;;;;;;;;4914724;29;20063;-63
2022/04/16 02:07:16;;;;;;;6.38;2.67;;;;;;;;;;4909216;29;20044;-61
2022/04/16 02:09:42;;;;;;;2.97;2.05;;;;;;;;;;4911299;29;20055;-60
2022/04/16 02:12:08;;;;;;;2.58;2.22;;;;;;;;;;4911504;29;20067;-63
2022/04/16 02:14:34;;;;;;;2.38;2.05;;;;;;;;;;4910448;29;20475;-63
2022/04/16 02:16:59;;;;;;;2.85;2.20;;;;;;;;;;4912327;29;20768;-62
2022/04/16 02:19:26;;;;;;;3.38;2.47;;;;;;;;;;4914122;29;20472;-64
2022/04/16 02:21:51;;;;;;;3.53;2.30;;;;;;;;;;4912460;29;20044;-62
2022/04/16 02:24:17;;;;;;;4.53;2.40;;;;;;;;;;4907997;29;20056;-62
2022/04/16 02:26:45;;;;;;;3.58;2.45;;;;;;;;;;4909865;29;20483;-64
2022/04/16 02:29:11;;;;;;;3.33;2.38;;;;;;;;;;4911038;29;20036;-64
2022/04/16 02:31:38;;;;;;;4.22;2.30;;;;;;;;;;4912437;29;20051;-63
2022/04/16 02:34:07;;;;;;;3.40;2.40;;;;;;;;;;4910219;29;20072;-61
2022/04/16 02:36:33;;;;;;;4.65;3.00;;;;;;;;;;4910530;29;20197;-62
2022/04/16 02:38:59;;;;;;;4.18;2.55;;;;;;;;;;4913000;29;20115;-64
2022/04/16 02:41:26;;;;;;;4.57;2.90;;;;;;;;;;4910868;29;20040;-66
2022/04/16 02:43:54;;;;;;;4.80;2.70;;;;;;;;;;4911952;29;20052;-64
2022/04/16 02:49:07;;;;;;;4.35;2.97;;;;;;;;;;4911475;29;20050;-63
2022/04/16 02:51:33;;;;;;;6.65;3.38;;;;;;;;;;4911494;29;20130;-63
2022/04/16 02:53:58;;;;;;;6.50;3.20;;;;;;;;;;4907180;29;20062;-64
2022/04/16 02:56:24;;;;;;;4.57;3.83;;;;;;;;;;4910331;29;20043;-63
2022/04/16 02:58:49;;;;;;;5.05;3.10;;;;;;;;;;4907725;29;20111;-62
2022/04/16 03:01:15;;;;;;;4.90;3.20;;;;;;;;;;4909350;29;20107;-63
2022/04/16 03:03:41;;;;;;;7.38;3.58;;;;;;;;;;4910975;29;20167;-63
2022/04/16 03:06:06;;;;;;;5.35;3.28;;;;;;;;;;4907605;29;20056;-62
2022/04/16 03:08:32;;;;;;;4.75;3.13;;;;;;;;;;4909738;29;20028;-62
2022/04/16 03:10:57;;;;;;;5.75;3.63;;;;;;;;;;4907274;29;20495;-63
2022/04/16 03:13:22;;;;;;;3.70;3.00;;;;;;;;;;4908338;29;20070;-63
2022/04/16 03:18:32;;;;;;;7.57;4.22;;;;;;;;;;4911739;29;20052;-62
2022/04/16 03:20:59;;;;;;;5.47;3.38;;;;;;;;;;4907140;29;20048;-64
2022/04/16 03:23:25;;;;;;;6.82;3.63;;;;;;;;;;4906416;29;20332;-64
2022/04/16 03:25:53;;;;;;;6.15;3.42;;;;;;;;;;4909300;29;20364;-64
2022/04/16 03:28:19;;;;;;;5.75;4.07;;;;;;;;;;4907667;29;20052;-63
2022/04/16 03:30:44;;;;;;;6.88;4.32;;;;;;;;;;4910228;29;20047;-62
2022/04/16 03:33:09;;;;;;;5.70;3.60;;;;;;;;;;4909607;29;20203;-63
2022/04/16 03:35:38;;;;;;;5.82;3.97;;;;;;;;;;4911434;29;20036;-64
2022/04/16 03:38:03;;;;;;;8.75;3.75;;;;;;;;;;4905996;29;20044;-64
2022/04/16 03:40:29;;;;;;;5.50;4.05;;;;;;;;;;4910271;29;20079;-64
2022/04/16 03:42:58;;;;;;;8.63;3.80;;;;;;;;;;4905850;29;20211;-62
2022/04/16 03:45:34;;;;;;;7.80;4.00;;;;;;;;;;4908783;29;20044;-62
2022/04/16 03:48:02;;;;;;;5.90;3.80;;;;;;;;;;4906400;29;20052;-62
2022/04/16 03:50:29;;;;;;;5.90;3.63;;;;;;;;;;4907813;29;20438;-64
2022/04/16 03:52:56;;;;;;;5.68;3.97;;;;;;;;;;4909832;29;20047;-62
2022/04/16 04:00:57;;;;;;;5.25;4.00;;;;;;;;;;4894866;29;20479;-63
2022/04/16 04:03:23;;;;;;;6.43;4.15;;;;;;;;;;4911531;29;20059;-62
2022/04/16 04:05:53;;;;;;;6.85;3.97;;;;;;;;;;4909643;29;20051;-62
2022/04/16 04:08:20;;;;;;;6.57;3.75;;;;;;;;;;4912014;29;20051;-62
2022/04/16 04:10:46;;;;;;;6.07;4.07;;;;;;;;;;4910142;29;20104;-64
2022/04/16 04:13:13;;;;;;;6.75;4.35;;;;;;;;;;4910062;29;20146;-64
2022/04/16 04:15:42;;;;;;;6.03;3.80;;;;;;;;;;4909887;29;20044;-63
2022/04/16 04:18:08;;;;;;;5.55;3.35;;;;;;;;;;4903869;29;20077;-62
2022/04/16 04:20:35;;;;;;;7.10;4.00;;;;;;;;;;4893765;29;20044;-62
2022/04/16 04:23:04;;;;;;;6.22;4.05;;;;;;;;;;4891048;29;20061;-62
2022/04/16 04:25:29;;;;;;;7.30;4.18;;;;;;;;;;4891415;29;20128;-62
2022/04/16 04:27:55;;;;;;;6.28;3.70;;;;;;;;;;4888808;29;20186;-62
2022/04/16 04:30:21;;;;;;;5.55;3.92;;;;;;;;;;4887912;29;20408;-65
2022/04/16 04:32:47;;;;;;;6.70;3.80;;;;;;;;;;4890178;29;20051;-64
2022/04/16 04:35:12;;;;;;;5.05;3.85;;;;;;;;;;4889559;29;20032;-64
2022/04/16 04:37:38;;;;;;;7.13;4.00;;;;;;;;;;4891063;29;20056;-62
2022/04/16 04:40:04;;;;;;;5.85;3.85;;;;;;;;;;4893828;29;20491;-63
2022/04/16 04:42:32;;;;;;;6.70;3.70;;;;;;;;;;4895556;29;20053;-63
2022/04/16 04:44:58;;;;;;;6.78;4.32;;;;;;;;;;4898194;29;20052;-62
2022/04/16 04:47:24;;;;;;;7.05;4.28;;;;;;;;;;4916223;29;20490;-63
2022/04/16 04:49:49;;;;;;;6.40;4.10;;;;;;;;;;4895340;29;20475;-63
2022/04/16 04:52:29;;;;;;;6.38;3.60;;;;;;;;;;4897215;29;20100;-64
2022/04/16 04:55:00;;;;;;;4.95;3.70;;;;;;;;;;4892183;29;20048;-63
2022/04/16 04:57:26;;;;;;;6.95;4.00;;;;;;;;;;4893422;29;20495;-63
2022/04/16 04:59:52;;;;;;;6.68;4.07;;;;;;;;;;4895637;29;20368;-62
2022/04/16 05:02:17;;;;;;;6.68;3.85;;;;;;;;;;4892762;29;20170;-65
2022/04/16 05:04:43;;;;;;;5.72;4.10;;;;;;;;;;4892195;29;20047;-63
2022/04/16 05:07:09;;;;;;;5.03;3.70;;;;;;;;;;4888715;29;20048;-63
2022/04/16 05:09:36;;;;;;;6.78;4.00;;;;;;;;;;4894849;29;20071;-53
2022/04/16 05:12:01;;;;;;;5.57;3.95;;;;;;;;;;4892094;29;20492;-54
2022/04/16 05:14:26;;;;;;;6.22;4.13;;;;;;;;;;4895066;29;20039;-54
2022/04/16 05:16:52;;;;;;;7.95;3.90;;;;;;;;;;4892073;29;20045;-55
2022/04/16 05:19:17;;;;;;;7.40;4.45;;;;;;;;;;4891800;29;20049;-57
2022/04/16 05:21:43;;;;;;;6.72;4.35;;;;;;;;;;4892808;29;20075;-54
2022/04/16 05:24:09;;;;;;;7.15;4.10;;;;;;;;;;4889406;29;20064;-53
2022/04/16 05:26:35;;;;;;;6.30;4.35;;;;;;;;;;4896005;29;20033;-56
2022/04/16 05:29:00;;;;;;;6.13;4.18;;;;;;;;;;4893689;29;20041;-56
2022/04/16 05:31:27;;;;;;;6.50;4.35;;;;;;;;;;4891454;29;20044;-56
2022/04/16 05:36:37;;;;;;;6.60;4.20;;;;;;;;;;4897274;29;20580;-57
2022/04/16 05:39:03;;;;;;;6.80;3.35;;;;;;;;;;4890506;29;20045;-54
2022/04/16 05:41:28;;;;;;;6.22;3.85;;;;;;;;;;4891981;29;20036;-54
2022/04/16 05:43:54;;;;;;;4.40;3.80;;;;;;;;;;4896664;29;20040;-54
2022/04/16 05:46:19;;;;;;;5.53;3.58;;;;;;;;;;4893376;29;20053;-53
2022/04/16 05:48:45;;;;;;;4.60;3.50;;;;;;;;;;4890746;29;20048;-53
2022/04/16 05:51:11;;;;;;;4.28;3.15;;;;;;;;;;4890447;29;20687;-55
2022/04/16 05:53:38;;;;;;;3.88;3.00;;;;;;;;;;4891894;29;20028;-56
2022/04/16 05:56:04;;;;;;;3.92;2.97;;;;;;;;;;4914095;29;20040;-54
2022/04/16 05:58:29;;;;;;;4.45;2.78;;;;;;;;;;4912594;29;20067;-54
2022/04/16 06:00:55;;;;;;;3.00;2.38;;;;;;;;;;4903556;29;20083;-58
2022/04/16 06:03:20;;;;;;;4.03;2.40;;;;;;;;;;4896985;29;20407;-56
2022/04/16 06:05:46;;;;;;;3.40;2.58;;;;;;;;;;4912365;29;20036;-57
2022/04/16 06:08:12;;;;;;;10.75;2.72;;;;;;;;;;4913375;29;20119;-55
2022/04/16 06:10:37;;;;;;;3.97;2.60;;;;;;;;;;4895006;29;20437;-55
2022/04/16 06:13:04;;;;;;;4.07;2.63;;;;;;;;;;4889439;29;20062;-56
2022/04/16 06:15:30;;;;;;;4.32;2.60;;;;;;;;;;4894792;29;20064;-56
2022/04/16 06:17:57;;;;;;;4.10;2.72;;;;;;;;;;4895024;29;20037;-54
2022/04/16 06:20:22;;;;;;;4.68;2.60;;;;;;;;;;4913287;29;20036;-54
2022/04/16 06:22:48;;;;;;;2.63;2.20;;;;;;;;;;4898879;29;20423;-54
2022/04/16 06:25:13;;;;;;;2.72;2.30;;;;;;;;;;4905144;29;20083;-56
2022/04/16 06:27:39;;;;;;;2.25;2.00;;;;;;;;;;4897874;29;20128;-55
2022/04/16 06:30:09;;;;;;;2.95;2.00;;;;;;;;;;4894013;29;20127;-57
2022/04/16 06:32:35;;;;;;;2.53;1.77;;;;;;;;;;4894083;29;20041;-57
2022/04/16 06:35:01;;;;;;;2.53;2.00;;;;;;;;;;4911127;29;20051;-53
2022/04/16 06:37:27;;;;;;;3.42;2.03;;;;;;;;;;4899692;29;20048;-56
2022/04/16 06:39:53;;;;;;;4.15;2.10;;;;;;;;;;4903700;29;20048;-55
2022/04/16 06:42:18;;;;;;;2.63;1.95;;;;;;;;;;4914830;29;20048;-58
2022/04/16 06:44:43;;;;;;;3.85;2.08;;;;;;;;;;4911740;29;20028;-55
2022/04/16 06:47:09;;;;;;;2.70;1.83;;;;;;;;;;4894850;29;20115;-59
2022/04/16 06:49:34;;;;;;;2.72;2.30;;;;;;;;;;4904487;29;20052;-55
2022/04/16 06:51:59;;;;;;;2.65;2.25;;;;;;;;;;4911991;29;20063;-57
2022/04/16 06:54:25;;;;;;;4.05;2.40;;;;;;;;;;4901890;29;20073;-54
2022/04/16 06:56:50;;;;;;;5.35;2.67;;;;;;;;;;4891928;29;20628;-54
2022/04/16 06:59:16;;;;;;;2.63;2.30;;;;;;;;;;4888626;29;20464;-56
2022/04/16 07:01:41;;;;;;;2.95;2.17;;;;;;;;;;4893092;29;20048;-58
2022/04/16 07:04:06;;;;;;;4.75;2.30;;;;;;;;;;4902528;29;20054;-55
2022/04/16 07:06:32;;;;;;;2.92;2.22;;;;;;;;;;4907168;29;20128;-55
2022/04/16 07:08:57;;;;;;;2.42;2.22;;;;;;;;;;4893519;29;20068;-57
2022/04/16 07:11:22;;;;;;;3.70;2.58;;;;;;;;;;4893251;29;20032;-55
2022/04/16 07:13:48;;;;;;;2.50;2.30;;;;;;;;;;4892630;29;20120;-55
2022/04/16 07:16:13;;;;;;;3.13;2.40;;;;;;;;;;4903394;29;20044;-54
2022/04/16 07:18:39;;;;;;;5.78;2.70;;;;;;;;;;4902397;29;20033;-55
2022/04/16 07:21:04;;;;;;;4.03;2.22;;;;;;;;;;4891242;29;20052;-54
2022/04/16 07:23:29;;;;;;;3.30;2.63;;;;;;;;;;4891183;29;20032;-54
2022/04/16 07:25:56;;;;;;;4.80;2.22;;;;;;;;;;4891101;29;20076;-56
2022/04/16 07:28:21;;;;;;;3.45;1.90;;;;;;;;;;4903984;29;20113;-56
2022/04/16 07:30:48;;;;;;;2.25;1.80;;;;;;;;;;4912449;29;20060;-53
2022/04/16 07:33:14;;;;;;;2.42;1.92;;;;;;;;;;4908237;29;20071;-57
2022/04/16 07:35:40;;;;;;;2.80;1.75;;;;;;;;;;4889926;29;20072;-56
2022/04/16 07:38:06;;;;;;;2.72;1.80;;;;;;;;;;4911488;29;20043;-58
2022/04/16 07:40:31;;;;;;;1.88;1.55;;;;;;;;;;4909762;29;20139;-55
2022/04/16 07:42:58;;;;;;;5.43;1.63;;;;;;;;;;4915109;29;20461;-56
2022/04/16 07:45:23;;;;;;;3.10;1.45;;;;;;;;;;4907175;29;20107;-56
2022/04/16 07:47:49;;;;;;;1.80;1.50;;;;;;;;;;4909481;29;20044;-53
2022/04/16 07:50:16;;;;;;;2.42;1.60;;;;;;;;;;4908443;29;20028;-53
2022/04/16 07:52:41;;;;;;;1.65;1.40;;;;;;;;;;4908653;29;20112;-51
2022/04/16 07:55:07;;;;;;;2.15;1.60;;;;;;;;;;4909906;29;20048;-56
2022/04/16 07:57:33;;;;;;;3.00;1.50;;;;;;;;;;4910716;29;20048;-54
2022/04/16 07:59:58;;;;;;;2.10;1.50;;;;;;;;;;4909102;29;20055;-55
2022/04/16 08:02:24;;;;;;;7.88;1.85;;;;;;;;;;4910198;29;20471;-56
2022/04/16 08:04:50;;;;;;;10.27;1.40;;;;;;;;;;4907363;29;20059;-57
2022/04/16 08:07:15;;;;;;;2.92;1.75;;;;;;;;;;4907311;29;20041;-53
2022/04/16 08:09:40;;;;;;;3.35;2.10;;;;;;;;;;4899384;29;20492;-57
2022/04/16 08:12:06;;;;;;;4.43;2.25;;;;;;;;;;4893398;29;20079;-57
2022/04/16 08:14:32;;;;;;;2.72;1.67;;;;;;;;;;4889847;29;20033;-57
2022/04/16 08:16:57;;;;;;;2.13;1.60;;;;;;;;;;4893329;29;20057;-56
2022/04/16 08:19:23;;;;;;;1.52;1.40;;;;;;;;;;4893136;29;20052;-56
2022/04/16 08:21:48;;;;;;;1.77;1.00;;;;;;;;;;4894046;29;20444;-56
2022/04/16 08:24:22;;;;;;;1.10;1.00;;;;;;;;;;4889328;29;20081;-53
2022/04/16 08:26:48;;;;;;;1.52;0.98;;;;;;;;;;4895965;29;20040;-56
2022/04/16 08:29:14;;;;;;;3.53;1.10;;;;;;;;;;4913388;29;20032;-55
2022/04/16 08:31:39;;;;;;;1.40;1.00;;;;;;;;;;4917193;28;20052;-56
2022/04/16 08:34:04;;;;;;;0.90;0.77;;;;;;;;;;4904025;29;20064;-57
2022/04/16 08:36:30;;;;;;;2.03;1.10;;;;;;;;;;4896062;29;20475;-55
2022/04/16 08:38:55;;;;;;;3.50;0.93;;;;;;;;;;4896913;29;20432;-57
2022/04/16 08:41:24;;;;;;;1.00;0.90;;;;;;;;;;4909461;29;20116;-54
2022/04/16 08:43:51;;;;;;;3.28;1.20;;;;;;;;;;4896283;29;20059;-55
2022/04/16 08:46:17;;;;;;;1.42;1.30;;;;;;;;;;4890005;29;20083;-54
2022/04/16 08:48:43;;;;;;;1.42;0.80;;;;;;;;;;4894058;29;20072;-56
2022/04/16 08:51:09;;;;;;;0.73;0.70;;;;;;;;;;4895684;29;20055;-53
2022/04/16 08:53:35;;;;;;;0.57;0.57;;;;;;;;;;4891479;29;20432;-53
2022/04/16 08:56:01;;;;;;;1.05;0.95;;;;;;;;;;4893931;29;20080;-53
2022/04/16 08:58:29;;;;;;;2.08;1.10;;;;;;;;;;4895324;29;20128;-57
2022/04/16 09:00:55;;;;;;;1.90;1.00;;;;;;;;;;4895828;29;20135;-56
2022/04/16 09:03:20;;;;;;;1.30;1.20;;;;;;;;;;4894576;29;20480;-58
2022/04/16 09:05:46;;;;;;;1.23;0.90;;;;;;;;;;4895811;29;20100;-56
2022/04/16 09:08:11;;;;;;;1.67;1.23;;;;;;;;;;4893351;29;20423;-55
2022/04/16 09:10:39;;;;;;;1.48;1.23;;;;;;;;;;4893040;29;20511;-57
2022/04/16 09:13:05;;;;;;;2.33;1.40;;;;;;;;;;4893301;29;20143;-56
2022/04/16 09:15:34;;;;;;;2.00;1.60;;;;;;;;;;4891571;29;20452;-54
2022/04/16 09:18:04;;;;;;;2.20;1.30;;;;;;;;;;4893406;29;20138;-53
2022/04/16 09:20:31;;;;;;;4.57;1.80;;;;;;;;;;4892424;29;20045;-54
2022/04/16 09:22:57;;;;;;;3.05;1.83;;;;;;;;;;4910471;29;20512;-53
2022/04/16 09:25:22;;;;;;;3.15;1.77;;;;;;;;;;4912747;29;20048;-53
2022/04/16 09:27:50;;;;;;;2.17;1.65;;;;;;;;;;4914197;29;20057;-54
2022/04/16 09:30:27;;;;;;;4.15;1.80;;;;;;;;;;4911705;29;20078;-58
2022/04/16 09:32:55;;;;;;;3.42;1.85;;;;;;;;;;4913487;29;20038;-57
2022/04/16 09:35:35;;;;;;;2.70;1.70;;;;;;;;;;4911644;29;20039;-57
2022/04/16 09:38:03;;;;;;;3.10;2.10;;;;;;;;;;4915473;29;20056;-57
2022/04/16 09:40:31;;;;;;;3.03;1.88;;;;;;;;;;4911608;29;20685;-56
2022/04/16 09:43:01;;;;;;;3.95;2.70;;;;;;;;;;4916706;28;20060;-58
2022/04/16 09:45:27;;;;;;;3.97;2.35;;;;;;;;;;4917603;29;20044;-55
2022/04/16 09:47:52;;;;;;;4.38;2.22;;;;;;;;;;4911747;29;20439;-54
2022/04/16 09:50:20;;;;;;;3.78;2.08;;;;;;;;;;4912978;29;20036;-55
2022/04/16 09:52:50;;;;;;;4.43;2.40;;;;;;;;;;4914496;29;20056;-56
2022/04/16 09:55:18;;;;;;;2.85;2.20;;;;;;;;;;4914837;29;20063;-58
2022/04/16 09:57:46;;;;;;;3.85;2.15;;;;;;;;;;4915425;29;20040;-56
2022/04/16 10:00:12;;;;;;;2.40;2.13;;;;;;;;;;4910325;29;20055;-55
2022/04/16 10:02:40;;;;;;;2.60;2.05;;;;;;;;;;4914375;29;20368;-57
2022/04/16 10:05:08;;;;;;;2.88;2.20;;;;;;;;;;4912310;29;20664;-57
2022/04/16 10:07:33;;;;;;;3.78;2.20;;;;;;;;;;4911652;29;20040;-56
2022/04/16 10:10:03;;;;;;;5.10;2.40;;;;;;;;;;4912276;29;20135;-56
2022/04/16 10:15:20;;;;;;;5.18;2.40;;;;;;;;;;4913844;29;20062;-55
2022/04/16 10:17:52;;;;;;;4.75;2.55;;;;;;;;;;4915836;29;20721;-58
2022/04/16 10:20:20;;;;;;;4.90;2.30;;;;;;;;;;4910434;29;20036;-55
2022/04/16 10:23:05;;;;;;;3.28;2.10;;;;;;;;;;4912417;29;20056;-56
2022/04/16 10:25:34;;;;;;;3.60;2.03;;;;;;;;;;4911351;29;20056;-56
2022/04/16 10:28:07;;;;;;;3.38;2.08;;;;;;;;;;4912130;29;20048;-56
2022/04/16 10:30:36;;;;;;;2.05;1.67;;;;;;;;;;4912380;29;20051;-55
2022/04/16 10:33:14;;;;;;;3.25;2.20;;;;;;;;;;4912182;29;20079;-51
2022/04/16 10:35:47;;;;;;;2.67;2.30;;;;;;;;;;4912035;29;20402;-58
2022/04/16 10:38:22;;;;;;;3.88;2.20;;;;;;;;;;4911344;29;20049;-58
2022/04/16 10:40:55;;;;;;;2.88;1.80;;;;;;;;;;4909548;29;20075;-55
2022/04/16 10:43:29;;;;;;;2.40;1.80;;;;;;;;;;4910200;29;20056;-57
2022/04/16 10:46:03;;;;;;;2.15;1.60;;;;;;;;;;4911414;29;20040;-55
2022/04/16 10:48:32;;;;;;;3.28;1.80;;;;;;;;;;4913037;29;20059;-55
2022/04/16 10:51:01;;;;;;;2.97;1.73;;;;;;;;;;4909926;29;20056;-56
2022/04/16 10:53:32;;;;;;;2.38;1.73;;;;;;;;;;4913520;29;20387;-55
2022/04/16 10:56:16;;;;;;;6.55;2.10;;;;;;;;;;4911163;29;20084;-54
2022/04/16 10:58:44;;;;;;;3.70;1.95;;;;;;;;;;4911751;29;20036;-55
2022/04/16 11:01:11;;;;;;;3.42;1.92;;;;;;;;;;4912356;29;21701;-55
2022/04/16 11:03:49;;;;;;;2.30;1.60;;;;;;;;;;4912174;29;20044;-54
2022/04/16 11:06:16;;;;;;;3.05;1.90;;;;;;;;;;4909888;29;20510;-54
2022/04/16 11:08:45;;;;;;;5.45;1.67;;;;;;;;;;4912793;29;20159;-54
2022/04/16 11:11:12;;;;;;;2.90;1.60;;;;;;;;;;4909377;29;20067;-57
2022/04/16 11:13:39;;;;;;;1.58;1.48;;;;;;;;;;4915358;29;20048;-53
2022/04/16 11:16:07;;;;;;;1.80;1.60;;;;;;;;;;4909938;29;20083;-54
2022/04/16 11:18:44;;;;;;;2.38;1.70;;;;;;;;;;4911375;29;20054;-56
2022/04/16 11:21:18;;;;;;;2.85;1.70;;;;;;;;;;4912008;29;20095;-57
2022/04/16 11:23:52;;;;;;;2.47;1.50;;;;;;;;;;4913015;29;20426;-56
2022/04/16 11:34:33;;;;;;;1.55;1.25;;;;;;;;;;4912459;29;20047;-56
2022/04/16 11:37:00;;;;;;;1.70;1.45;;;;;;;;;;4909614;29;20131;-55
2022/04/16 11:39:34;;;;;;;1.70;1.20;;;;;;;;;;4909915;29;20147;-56
2022/04/16 11:42:10;;;;;;;2.58;1.40;;;;;;;;;;4911763;29;20068;-56
2022/04/16 11:44:44;;;;;;;2.58;1.40;;;;;;;;;;4911345;29;20120;-57
2022/04/16 11:47:14;;;;;;;2.33;1.45;;;;;;;;;;4909574;29;20052;-58
2022/04/16 11:49:44;;;;;;;2.38;1.48;;;;;;;;;;4910903;29;20135;-55
2022/04/16 11:52:10;;;;;;;1.20;1.10;;;;;;;;;;4907242;29;20052;-53
2022/04/16 11:54:35;;;;;;;2.97;1.48;;;;;;;;;;4910415;29;20166;-55
2022/04/16 11:57:01;;;;;;;3.38;1.30;;;;;;;;;;4910762;29;20070;-56
2022/04/16 11:59:28;;;;;;;2.22;1.20;;;;;;;;;;4908116;29;20039;-53
2022/04/16 12:01:57;;;;;;;1.88;1.30;;;;;;;;;;4907387;29;20108;-54
2022/04/16 12:04:33;;;;;;;2.35;1.05;;;;;;;;;;4909678;29;20056;-52
2022/04/16 12:06:58;;;;;;;1.30;0.90;;;;;;;;;;4911720;29;20052;-57
2022/04/16 12:09:24;;;;;;;3.08;1.30;;;;;;;;;;4910474;29;20044;-51
2022/04/16 12:11:54;;;;;;;2.13;1.00;;;;;;;;;;4909825;29;20062;-55
2022/04/16 12:14:19;;;;;;;1.88;1.00;;;;;;;;;;4913615;29;20393;-57
2022/04/16 12:16:56;;;;;;;1.30;1.08;;;;;;;;;;4908798;29;20056;-56
2022/04/16 12:19:21;;;;;;;5.40;1.10;;;;;;;;;;4908959;29;20076;-51
2022/04/16 12:21:46;;;;;;;1.17;0.88;;;;;;;;;;4912181;29;20082;-53
2022/04/16 12:24:12;;;;;;;1.70;0.90;;;;;;;;;;4910135;29;20047;-53
2022/04/16 12:26:47;;;;;;;2.05;0.85;;;;;;;;;;4911775;29;20068;-59
2022/04/16 12:29:12;;;;;;;1.67;0.98;;;;;;;;;;4909942;29;20079;-53
2022/04/16 12:31:38;;;;;;;1.58;0.80;;;;;;;;;;4907785;29;21612;-58
2022/04/16 12:34:03;;;;;;;3.33;0.80;;;;;;;;;;4905699;29;20044;-57
2022/04/16 12:36:28;;;;;;;3.58;0.85;;;;;;;;;;4906878;29;20473;-55
2022/04/16 12:38:54;;;;;;;1.27;1.10;;;;;;;;;;4905486;28;20044;-57
2022/04/16 12:41:22;;;;;;;2.28;0.88;;;;;;;;;;4910234;29;20031;-56
2022/04/16 12:43:48;;;;;;;3.03;0.80;;;;;;;;;;4912216;29;20032;-57
2022/04/16 12:46:13;;;;;;;0.80;0.80;;;;;;;;;;4911722;29;20103;-56
2022/04/16 12:48:39;;;;;;;1.35;0.90;;;;;;;;;;4909814;29;21429;-56
2022/04/16 12:51:05;;;;;;;1.38;0.70;;;;;;;;;;4910762;29;20063;-58
2022/04/16 12:53:30;;;;;;;2.03;0.77;;;;;;;;;;4909725;29;20119;-57
2022/04/16 12:55:56;;;;;;;1.02;0.73;;;;;;;;;;4910456;29;20463;-57
2022/04/16 12:58:21;;;;;;;1.52;1.23;;;;;;;;;;4910331;29;20188;-57
2022/04/16 13:00:47;;;;;;;0.77;0.70;;;;;;;;;;4911615;29;20419;-51
2022/04/16 13:03:13;;;;;;;3.35;0.90;;;;;;;;;;4914259;29;20044;-55
2022/04/16 13:05:39;;;;;;;2.65;0.90;;;;;;;;;;4929388;29;20056;-56
2022/04/16 13:08:04;;;;;;;1.13;0.80;;;;;;;;;;4917305;29;20046;-56
2022/04/16 13:10:30;;;;;;;1.55;1.00;;;;;;;;;;4911024;29;20084;-57
2022/04/16 13:12:57;;;;;;;2.45;0.93;;;;;;;;;;4915661;29;20406;-54
2022/04/16 13:15:22;;;;;;;1.38;0.95;;;;;;;;;;4912648;29;20048;-57
2022/04/16 13:17:48;;;;;;;2.88;0.75;;;;;;;;;;4912134;29;20068;-56
2022/04/16 13:20:13;;;;;;;1.65;0.82;;;;;;;;;;4908469;29;20039;-56
2022/04/16 13:22:39;;;;;;;1.65;0.90;;;;;;;;;;4915821;29;20104;-55
2022/04/16 13:25:05;;;;;;;1.08;0.73;;;;;;;;;;4912855;29;20048;-52
2022/04/16 13:27:31;;;;;;;3.13;1.08;;;;;;;;;;4915439;29;20052;-53
2022/04/16 13:29:56;;;;;;;1.98;1.10;;;;;;;;;;4913750;29;20419;-54
2022/04/16 13:32:22;;;;;;;1.15;0.68;;;;;;;;;;4929458;29;20088;-55
2022/04/16 13:34:47;;;;;;;3.15;0.93;;;;;;;;;;4914854;29;20028;-54
2022/04/16 13:37:13;;;;;;;1.23;0.77;;;;;;;;;;4914950;29;20118;-55
2022/04/16 13:42:23;;;;;;;1.17;0.90;;;;;;;;;;4913121;29;20119;-56
2022/04/16 13:44:49;;;;;;;2.42;1.10;;;;;;;;;;4915793;29;20060;-54
2022/04/16 13:47:14;;;;;;;1.83;0.73;;;;;;;;;;4909337;29;20038;-52
2022/04/16 13:49:41;;;;;;;0.70;0.70;;;;;;;;;;4913463;29;20538;-55
2022/04/16 13:52:07;;;;;;;1.55;0.88;;;;;;;;;;4905808;29;20045;-51
2022/04/16 13:54:32;;;;;;;2.67;0.90;;;;;;;;;;4912533;29;20048;-55
2022/04/16 13:56:58;;;;;;;3.45;1.00;;;;;;;;;;4909174;29;20052;-57
2022/04/16 13:59:23;;;;;;;1.98;0.75;;;;;;;;;;4909379;29;20035;-56
2022/04/16 14:01:50;;;;;;;1.63;1.00;;;;;;;;;;4916026;29;20095;-55
2022/04/16 14:04:16;;;;;;;1.73;0.90;;;;;;;;;;4914708;29;20516;-58
2022/04/16 14:06:43;;;;;;;2.53;0.85;;;;;;;;;;4910860;29;20044;-58
2022/04/16 14:09:09;;;;;;;0.50;0.47;;;;;;;;;;4915063;29;20044;-59
2022/04/16 14:11:34;;;;;;;1.60;0.80;;;;;;;;;;4913915;29;20051;-56
2022/04/16 14:14:00;;;;;;;2.05;1.00;;;;;;;;;;4914981;29;20114;-57
2022/04/16 14:16:26;;;;;;;1.48;0.68;;;;;;;;;;4913189;29;20041;-56
2022/04/16 14:18:51;;;;;;;2.65;0.90;;;;;;;;;;4913857;29;20051;-58
2022/04/16 14:21:17;;;;;;;0.77;0.77;;;;;;;;;;4914802;29;20056;-57
2022/04/16 14:23:42;;;;;;;0.90;0.70;;;;;;;;;;4912838;29;20103;-57
2022/04/16 14:26:09;;;;;;;1.55;0.60;;;;;;;;;;4914326;29;20038;-56
2022/04/16 14:28:39;;;;;;;1.38;0.68;;;;;;;;;;4912786;29;20390;-57
2022/04/16 14:31:06;;;;;;;0.93;0.50;;;;;;;;;;4912293;29;20071;-56
2022/04/16 14:33:34;;;;;;;1.55;0.80;;;;;;;;;;4909730;29;20414;-54
2022/04/16 14:36:03;;;;;;;2.30;1.10;;;;;;;;;;4912497;29;20148;-54
2022/04/16 14:38:29;;;;;;;2.92;0.73;;;;;;;;;;4914841;29;20048;-57
2022/04/16 14:41:09;;;;;;;2.17;0.80;;;;;;;;;;4913582;29;20147;-57
2022/04/16 14:43:37;;;;;;;2.22;0.85;;;;;;;;;;4912802;29;20044;-57
2022/04/16 14:46:04;;;;;;;1.25;0.80;;;;;;;;;;4912374;29;20048;-55
2022/04/16 14:48:30;;;;;;;1.40;0.80;;;;;;;;;;4911709;29;20079;-56
2022/04/16 14:50:55;;;;;;;1.92;0.90;;;;;;;;;;4912995;29;20483;-56
2022/04/16 14:53:20;;;;;;;0.95;0.80;;;;;;;;;;4915001;29;20027;-58
2022/04/16 14:55:46;;;;;;;0.95;0.60;;;;;;;;;;4914180;29;20083;-57
2022/04/16 14:58:11;;;;;;;1.17;0.50;;;;;;;;;;4913625;29;20055;-55
2022/04/16 15:00:36;;;;;;;0.77;0.63;;;;;;;;;;4911992;29;20052;-54
2022/04/16 15:03:03;;;;;;;1.05;0.80;;;;;;;;;;4912458;29;20534;-55
2022/04/16 15:05:29;;;;;;;1.73;0.77;;;;;;;;;;4913146;29;20077;-53
2022/04/16 15:07:54;;;;;;;4.65;0.98;;;;;;;;;;4909408;29;20060;-55